Time;durP1;ratioP1;P1;durP2;ratioP2;P2;SDS_P1;SDS_P2;PMS_P1;PMS_P2;Temp;Humidity;BMP_temperature;BMP_pressure;BME280_temperature;BME280_humidity;BME280_pressure;Samples;Min_cycle;Max_cycle;Signal;HPM_P1;HPM_P2
2022/09/07 00:01:41;;;;;;;1.07;0.97;;;;;;;18.60;68.73;99597.53;5089112;28;20670;-56
2022/09/07 00:04:08;;;;;;;0.83;0.70;;;;;;;18.59;69.51;99593.31;5089115;28;20245;-63
2022/09/07 00:06:35;;;;;;;0.60;0.60;;;;;;;18.55;68.68;99592.81;5089199;28;20289;-63
2022/09/07 00:09:03;;;;;;;0.80;0.80;;;;;;;18.50;68.82;99593.25;5093971;28;20609;-63
2022/09/07 00:11:30;;;;;;;0.43;0.43;;;;;;;18.45;69.34;99597.25;5093433;28;20204;-64
2022/09/07 00:13:57;;;;;;;0.93;0.73;;;;;;;18.41;69.86;99590.72;5093410;28;20220;-56
2022/09/07 00:16:27;;;;;;;0.87;0.60;;;;;;;18.40;71.50;99594.31;5093382;28;20671;-56
2022/09/07 00:18:54;;;;;;;0.70;0.70;;;;;;;18.36;71.68;99592.97;5093315;28;20273;-57
2022/09/07 00:21:21;;;;;;;0.83;0.80;;;;;;;18.28;71.36;99591.94;5093330;28;20202;-59
2022/09/07 00:23:49;;;;;;;0.77;0.70;;;;;;;18.24;71.87;99595.78;5093543;28;20327;-56
2022/09/07 00:26:18;;;;;;;0.83;0.80;;;;;;;18.19;72.25;99594.59;5093036;28;20203;-56
2022/09/07 00:28:45;;;;;;;1.07;0.97;;;;;;;18.12;72.23;99590.94;5093511;28;20225;-63
2022/09/07 00:31:14;;;;;;;0.77;0.70;;;;;;;18.06;71.67;99592.34;5092909;28;20206;-56
2022/09/07 00:33:44;;;;;;;1.50;0.90;;;;;;;18.01;72.75;99594.59;5093771;28;20682;-57
2022/09/07 00:36:11;;;;;;;0.70;0.70;;;;;;;17.98;73.00;99592.28;5093290;28;20194;-63
2022/09/07 00:38:38;;;;;;;2.53;0.90;;;;;;;17.95;73.00;99587.38;5093459;28;20240;-63
2022/09/07 00:41:06;;;;;;;0.53;0.53;;;;;;;17.86;72.94;99587.31;5092921;28;20211;-63
2022/09/07 00:43:35;;;;;;;0.87;0.80;;;;;;;17.85;72.48;99588.25;5093190;28;20739;-57
2022/09/07 00:46:02;;;;;;;1.33;1.17;;;;;;;17.81;72.91;99588.72;5093271;28;20202;-57
2022/09/07 00:48:36;;;;;;;1.40;1.10;;;;;;;17.79;72.48;99586.25;5093416;28;20224;-57
2022/09/07 00:51:09;;;;;;;1.20;0.90;;;;;;;17.79;72.71;99600.97;5092792;28;20207;-63
2022/09/07 00:53:40;;;;;;;0.80;0.80;;;;;;;17.75;73.35;99584.91;5093112;28;20221;-63
2022/09/07 00:56:07;;;;;;;1.00;0.83;;;;;;;17.67;73.88;99581.41;5092526;28;20204;-63
2022/09/07 00:58:37;;;;;;;0.67;0.63;;;;;;;17.67;74.27;99584.81;5092649;28;20561;-63
2022/09/07 01:01:04;;;;;;;1.43;1.17;;;;;;;17.58;74.53;99585.66;5092956;28;20211;-63
2022/09/07 01:03:36;;;;;;;1.17;0.80;;;;;;;17.51;74.63;99582.00;5093048;28;20600;-63
2022/09/07 01:06:12;;;;;;;0.80;0.80;;;;;;;17.39;74.91;99579.63;5092153;28;20627;-56
2022/09/07 01:08:40;;;;;;;0.87;0.47;;;;;;;17.35;75.82;99577.47;5092369;28;20256;-56
2022/09/07 01:11:07;;;;;;;0.77;0.77;;;;;;;17.22;76.23;99580.38;5092297;28;20741;-56
2022/09/07 01:13:35;;;;;;;0.90;0.73;;;;;;;17.13;76.76;99584.63;5093073;28;20231;-63
2022/09/07 01:16:12;;;;;;;0.70;0.70;;;;;;;17.14;76.50;99588.00;5092145;28;20214;-60
2022/09/07 01:18:45;;;;;;;0.57;0.53;;;;;;;17.08;77.42;99580.84;5092399;28;20231;-56
2022/09/07 01:21:30;;;;;;;0.70;0.70;;;;;;;17.08;77.24;99581.63;5092320;28;20207;-63
2022/09/07 01:24:42;;;;;;;0.67;0.63;;;;;;;17.08;77.96;99581.63;5092909;28;20247;-63
2022/09/07 01:27:54;;;;;;;0.60;0.53;;;;;;;16.98;77.86;99575.66;5091696;28;20223;-63
2022/09/07 01:30:24;;;;;;;0.73;0.60;;;;;;;16.91;78.13;99574.59;5075010;28;20191;-56
2022/09/07 01:33:09;;;;;;;0.40;0.40;;;;;;;16.85;78.62;99575.97;5092154;28;20698;-63
2022/09/07 01:35:44;;;;;;;0.97;0.87;;;;;;;16.81;78.70;99579.78;5092180;28;20195;-63
2022/09/07 01:38:19;;;;;;;0.47;0.47;;;;;;;16.82;79.03;99580.63;5091921;28;20219;-63
2022/09/07 01:40:53;;;;;;;1.23;0.77;;;;;;;16.80;79.14;99578.16;5091794;28;20234;-62
2022/09/07 01:43:31;;;;;;;0.83;0.70;;;;;;;16.83;79.99;99588.22;5092460;28;20587;-63
2022/09/07 01:46:03;;;;;;;0.70;0.70;;;;;;;16.75;79.83;99585.47;5091878;28;20203;-62
2022/09/07 01:48:33;;;;;;;0.80;0.50;;;;;;;16.74;80.09;99570.94;5091850;28;20226;-56
2022/09/07 01:51:03;;;;;;;0.73;0.73;;;;;;;16.76;80.86;99581.97;5091456;28;20210;-63
2022/09/07 01:53:35;;;;;;;0.43;0.40;;;;;;;16.72;80.71;99575.41;5091768;28;20267;-57
2022/09/07 01:56:08;;;;;;;0.77;0.73;;;;;;;16.70;81.44;99567.00;5091347;28;20210;-63
2022/09/07 01:58:39;;;;;;;0.70;0.70;;;;;;;16.69;81.73;99558.44;5091707;28;20716;-57
2022/09/07 02:01:11;;;;;;;0.87;0.87;;;;;;;16.65;82.16;99558.84;5091438;28;20201;-57
2022/09/07 02:03:42;;;;;;;1.07;0.97;;;;;;;16.59;82.57;99565.38;5091839;28;20222;-62
2022/09/07 02:06:15;;;;;;;1.07;0.93;;;;;;;16.56;81.92;99564.84;5091613;28;20586;-56
2022/09/07 02:08:47;;;;;;;0.70;0.50;;;;;;;16.57;82.22;99556.16;5091476;28;20213;-63
2022/09/07 02:11:18;;;;;;;0.60;0.60;;;;;;;16.58;81.90;99562.94;5091419;28;20676;-62
2022/09/07 02:13:51;;;;;;;0.53;0.53;;;;;;;16.62;81.41;99553.97;5091320;28;20221;-57
2022/09/07 02:16:23;;;;;;;0.67;0.60;;;;;;;16.63;80.73;99553.81;5091150;28;20212;-62
2022/09/07 02:18:55;;;;;;;0.40;0.40;;;;;;;16.64;80.99;99549.47;5091366;28;20230;-63
2022/09/07 02:21:29;;;;;;;1.07;0.97;;;;;;;16.61;80.93;99557.50;5091183;28;20208;-63
2022/09/07 02:24:03;;;;;;;0.33;0.33;;;;;;;16.52;80.99;99559.97;5091621;28;20218;-63
2022/09/07 02:26:30;;;;;;;0.80;0.50;;;;;;;16.49;80.75;99559.41;5091076;28;20666;-62
2022/09/07 02:28:58;;;;;;;1.00;0.67;;;;;;;16.51;79.79;99553.16;5090948;28;20232;-56
2022/09/07 02:31:26;;;;;;;1.07;0.73;;;;;;;16.50;80.17;99556.69;5090385;28;20195;-57
2022/09/07 02:33:53;;;;;;;0.40;0.40;;;;;;;16.49;79.99;99560.25;5091188;28;20228;-63
2022/09/07 02:36:24;;;;;;;0.90;0.70;;;;;;;16.50;79.98;99554.13;5090868;28;20219;-63
2022/09/07 02:38:51;;;;;;;0.80;0.57;;;;;;;16.53;79.47;99551.25;5091420;28;20263;-57
2022/09/07 02:41:33;;;;;;;1.20;0.70;;;;;;;16.57;78.80;99553.56;5091239;28;20194;-63
2022/09/07 02:44:03;;;;;;;0.40;0.40;;;;;;;16.61;79.16;99563.50;5090727;28;20222;-63
2022/09/07 02:46:45;;;;;;;1.97;0.67;;;;;;;16.68;78.42;99553.41;5089419;28;20209;-57
2022/09/07 02:49:24;;;;;;;0.80;0.80;;;;;;;16.70;77.95;99551.53;5090299;28;20222;-63
2022/09/07 02:52:00;;;;;;;0.60;0.60;;;;;;;16.78;77.31;99549.06;5089477;28;20674;-63
2022/09/07 02:54:40;;;;;;;0.60;0.50;;;;;;;16.86;78.03;99559.53;5090301;28;20383;-56
2022/09/07 02:57:20;;;;;;;0.50;0.50;;;;;;;16.80;78.76;99554.09;5089786;28;20591;-56
2022/09/07 03:00:01;;;;;;;0.37;0.37;;;;;;;16.69;78.81;99555.84;5090219;28;20229;-56
2022/09/07 03:02:35;;;;;;;0.90;0.70;;;;;;;16.65;78.60;99553.69;5090374;28;20244;-57
2022/09/07 03:05:09;;;;;;;0.87;0.73;;;;;;;16.65;78.56;99553.69;5090139;28;20202;-57
2022/09/07 03:07:41;;;;;;;0.67;0.63;;;;;;;16.59;79.16;99549.91;5090521;28;20413;-57
2022/09/07 03:10:09;;;;;;;0.53;0.53;;;;;;;16.40;79.15;99555.88;5089998;28;20206;-63
2022/09/07 03:12:43;;;;;;;0.53;0.53;;;;;;;16.33;79.31;99564.31;5090073;28;20251;-63
2022/09/07 03:15:11;;;;;;;0.63;0.60;;;;;;;16.35;79.37;99560.66;5090397;28;20803;-56
2022/09/07 03:17:40;;;;;;;0.93;0.90;;;;;;;16.37;79.55;99565.66;5089845;28;20225;-56
2022/09/07 03:20:08;;;;;;;0.73;0.73;;;;;;;16.40;80.12;99566.19;5090027;28;20230;-63
2022/09/07 03:22:35;;;;;;;0.70;0.70;;;;;;;16.38;80.09;99557.00;5090375;28;20221;-62
2022/09/07 03:25:03;;;;;;;0.70;0.70;;;;;;;16.33;80.52;99565.13;5090302;28;20228;-57
2022/09/07 03:27:30;;;;;;;1.40;1.07;;;;;;;16.33;80.98;99559.97;5090012;28;20401;-57
2022/09/07 03:29:57;;;;;;;0.83;0.83;;;;;;;16.30;81.65;99570.56;5090073;28;20206;-63
2022/09/07 03:32:24;;;;;;;0.63;0.63;;;;;;;16.31;81.78;99561.84;5090110;28;20228;-62
2022/09/07 03:34:52;;;;;;;0.60;0.50;;;;;;;16.35;81.68;99568.41;5089762;28;20212;-63
2022/09/07 03:37:19;;;;;;;0.50;0.43;;;;;;;16.38;81.91;99572.47;5089739;28;20520;-63
2022/09/07 03:39:46;;;;;;;0.67;0.63;;;;;;;16.36;82.16;99570.00;5089558;28;20230;-63
2022/09/07 03:42:13;;;;;;;0.50;0.50;;;;;;;16.37;81.95;99563.09;5088593;28;20376;-63
2022/09/07 03:44:40;;;;;;;0.57;0.57;;;;;;;16.33;81.89;99570.28;5089824;28;20200;-62
2022/09/07 03:47:07;;;;;;;0.60;0.43;;;;;;;16.27;82.14;99571.63;5089629;28;20202;-57
2022/09/07 03:49:34;;;;;;;0.67;0.67;;;;;;;16.25;82.54;99572.72;5089797;28;20213;-56
2022/09/07 03:52:03;;;;;;;0.33;0.33;;;;;;;16.21;82.39;99571.38;5090362;28;20202;-63
2022/09/07 03:54:30;;;;;;;0.57;0.57;;;;;;;16.18;82.93;99576.81;5089498;28;20259;-63
2022/09/07 03:56:57;;;;;;;1.73;1.20;;;;;;;16.07;83.31;99575.16;5089421;28;20194;-57
2022/09/07 03:59:24;;;;;;;1.17;0.87;;;;;;;16.04;83.37;99583.97;5089464;28;20229;-62
2022/09/07 04:01:51;;;;;;;0.87;0.80;;;;;;;16.17;83.73;99596.59;5089942;28;20196;-57
2022/09/07 04:04:18;;;;;;;0.70;0.70;;;;;;;16.13;83.80;99597.03;5089611;28;20218;-63
2022/09/07 04:06:45;;;;;;;0.43;0.43;;;;;;;16.14;83.82;99596.06;5089576;28;20666;-63
2022/09/07 04:09:14;;;;;;;0.70;0.70;;;;;;;16.11;83.72;99596.34;5089614;28;20374;-63
2022/09/07 04:11:41;;;;;;;1.17;0.90;;;;;;;16.12;84.42;99595.41;5089200;28;20593;-62
2022/09/07 04:14:08;;;;;;;1.00;0.90;;;;;;;16.07;84.29;99601.75;5089309;28;20217;-62
2022/09/07 04:16:35;;;;;;;0.37;0.37;;;;;;;16.11;84.58;99601.50;5089537;28;20203;-62
2022/09/07 04:19:02;;;;;;;0.80;0.50;;;;;;;16.14;85.06;99601.22;5089244;28;20235;-56
2022/09/07 04:21:31;;;;;;;0.70;0.70;;;;;;;16.16;85.27;99600.16;5089426;28;20233;-56
2022/09/07 04:23:59;;;;;;;0.60;0.60;;;;;;;16.19;85.86;99599.88;5089717;28;20600;-56
2022/09/07 04:26:29;;;;;;;1.70;1.20;;;;;;;16.24;85.92;99602.06;5089037;28;20259;-63
2022/09/07 04:28:56;;;;;;;0.77;0.77;;;;;;;16.26;85.18;99606.16;5089077;28;20214;-56
2022/09/07 04:31:24;;;;;;;2.37;0.73;;;;;;;16.31;84.89;99608.31;5089391;28;20194;-56
2022/09/07 04:33:51;;;;;;;0.77;0.77;;;;;;;16.38;84.02;99600.84;5089289;28;20214;-63
2022/09/07 04:36:19;;;;;;;0.70;0.70;;;;;;;16.39;84.09;99600.72;5088960;28;20202;-63
2022/09/07 04:38:46;;;;;;;0.70;0.70;;;;;;;16.42;84.58;99605.59;5089615;28;20221;-56
2022/09/07 04:41:15;;;;;;;0.90;0.77;;;;;;;16.45;84.99;99600.16;5089050;28;20621;-63
2022/09/07 04:43:44;;;;;;;1.13;0.90;;;;;;;16.48;85.29;99605.06;5089048;28;20215;-63
2022/09/07 04:46:17;;;;;;;0.70;0.67;;;;;;;16.54;85.32;99603.69;5087113;28;20232;-63
2022/09/07 04:48:44;;;;;;;0.87;0.80;;;;;;;16.60;84.80;99603.16;5088862;28;20290;-59
2022/09/07 04:51:11;;;;;;;0.80;0.70;;;;;;;16.75;84.35;99606.13;5088573;28;20225;-63
2022/09/07 04:53:39;;;;;;;0.40;0.40;;;;;;;16.90;85.59;99609.97;5090304;28;20226;-56
2022/09/07 04:56:06;;;;;;;1.00;0.77;;;;;;;17.04;84.81;99600.13;5092026;28;20205;-62
2022/09/07 04:58:33;;;;;;;0.80;0.80;;;;;;;17.12;83.03;99602.84;5092687;28;20708;-56
2022/09/07 05:01:03;;;;;;;0.57;0.57;;;;;;;17.20;82.22;99608.94;5092166;28;20238;-56
2022/09/07 05:03:31;;;;;;;1.53;0.97;;;;;;;17.27;81.65;99606.59;5092727;28;20749;-57
2022/09/07 05:06:00;;;;;;;2.10;1.10;;;;;;;17.55;83.52;99610.03;5091983;28;20199;-56
2022/09/07 05:08:27;;;;;;;1.23;0.83;;;;;;;17.84;83.12;99612.50;5092363;28;20235;-63
2022/09/07 05:10:56;;;;;;;1.10;1.00;;;;;;;18.14;84.85;99615.72;5091764;28;20211;-56
2022/09/07 05:13:24;;;;;;;0.97;0.97;;;;;;;18.33;85.25;99607.84;5092132;28;20414;-63
2022/09/07 05:15:51;;;;;;;1.63;0.93;;;;;;;18.53;84.39;99618.06;5091397;28;20298;-63
2022/09/07 05:18:20;;;;;;;1.00;0.83;;;;;;;18.81;82.49;99617.97;5091957;28;20250;-63
2022/09/07 05:20:47;;;;;;;1.20;1.00;;;;;;;19.07;82.49;99613.59;5091680;28;20232;-63
2022/09/07 05:23:13;;;;;;;1.13;1.03;;;;;;;19.23;82.44;99612.91;5091666;28;20229;-56
2022/09/07 05:25:43;;;;;;;0.70;0.70;;;;;;;19.36;77.14;99618.47;5091908;28;20198;-56
2022/09/07 05:28:10;;;;;;;1.97;1.30;;;;;;;19.62;81.84;99613.25;5091920;28;20218;-56
2022/09/07 05:30:38;;;;;;;0.73;0.73;;;;;;;19.89;78.96;99620.00;5091297;28;20201;-63
2022/09/07 05:33:06;;;;;;;0.93;0.90;;;;;;;20.11;78.33;99623.00;5091927;28;20212;-63
2022/09/07 05:35:35;;;;;;;2.00;0.90;;;;;;;20.33;79.60;99621.56;5091582;28;20642;-63
2022/09/07 05:38:02;;;;;;;0.83;0.73;;;;;;;20.53;76.85;99627.28;5091277;28;20649;-56
2022/09/07 05:40:31;;;;;;;1.17;0.97;;;;;;;20.66;77.61;99619.03;5091562;28;20636;-56
2022/09/07 05:42:58;;;;;;;1.87;1.13;;;;;;;20.85;74.07;99616.09;5091607;28;20221;-56
2022/09/07 05:45:25;;;;;;;1.07;0.80;;;;;;;21.00;71.99;99618.81;5090668;28;20209;-58
2022/09/07 05:47:54;;;;;;;1.10;1.00;;;;;;;21.10;74.26;99623.88;5091732;28;20223;-63
2022/09/07 05:50:21;;;;;;;0.60;0.60;;;;;;;21.17;74.73;99609.22;5091265;28;20440;-63
2022/09/07 05:52:49;;;;;;;0.97;0.87;;;;;;;21.30;73.58;99609.50;5091350;28;20224;-57
2022/09/07 05:55:16;;;;;;;1.10;1.00;;;;;;;21.43;72.20;99615.00;5091762;28;20203;-64
2022/09/07 05:57:43;;;;;;;1.40;1.00;;;;;;;21.56;69.38;99613.69;5090115;28;20752;-63
2022/09/07 06:00:12;;;;;;;0.73;0.70;;;;;;;21.67;70.15;99608.91;5089074;28;20212;-63
2022/09/07 06:02:39;;;;;;;0.77;0.70;;;;;;;21.81;68.22;99604.75;5089429;28;20251;-57
2022/09/07 06:05:06;;;;;;;1.10;0.80;;;;;;;22.01;66.67;99606.94;5090057;28;20890;-63
2022/09/07 06:07:33;;;;;;;1.43;1.10;;;;;;;22.22;67.60;99609.75;5091129;28;20701;-57
2022/09/07 06:10:02;;;;;;;1.03;0.90;;;;;;;22.32;63.58;99602.53;5090758;28;20209;-57
2022/09/07 06:12:29;;;;;;;0.70;0.70;;;;;;;22.49;68.08;99608.44;5090960;28;20224;-57
2022/09/07 06:14:55;;;;;;;0.70;0.70;;;;;;;22.75;68.10;99610.66;5089945;28;20231;-57
2022/09/07 06:17:22;;;;;;;0.90;0.90;;;;;;;22.89;63.54;99605.63;5090721;28;20198;-64
2022/09/07 06:19:49;;;;;;;2.90;2.13;;;;;;;23.09;61.90;99609.38;5090833;28;20206;-57
2022/09/07 06:22:16;;;;;;;1.10;1.00;;;;;;;23.03;61.12;99610.09;5090542;28;20323;-57
2022/09/07 06:24:43;;;;;;;1.50;1.13;;;;;;;23.11;65.47;99617.84;5090699;28;20686;-57
2022/09/07 06:27:11;;;;;;;0.70;0.70;;;;;;;23.28;66.48;99623.72;5086814;28;20202;-57
2022/09/07 06:29:38;;;;;;;1.33;1.00;;;;;;;23.44;67.81;99623.50;5070230;28;20225;-64
2022/09/07 06:32:05;;;;;;;0.70;0.70;;;;;;;23.60;65.44;99632.16;5087706;28;20332;-57
2022/09/07 06:34:32;;;;;;;0.93;0.80;;;;;;;23.75;69.09;99624.31;5085400;28;20225;-64
2022/09/07 06:36:59;;;;;;;1.23;1.10;;;;;;;23.93;64.84;99627.34;5085592;28;20209;-64
2022/09/07 06:39:26;;;;;;;0.68;0.68;;;;;;;24.15;65.90;99623.75;5085884;28;20225;-57
2022/09/07 06:41:53;;;;;;;1.08;1.00;;;;;;;24.32;63.23;99623.53;5085100;28;20233;-57
2022/09/07 06:44:21;;;;;;;1.05;0.95;;;;;;;24.39;63.30;99627.00;5090882;28;20244;-57
2022/09/07 06:46:48;;;;;;;1.42;0.90;;;;;;;24.46;63.81;99633.13;5090965;28;20236;-57
2022/09/07 06:49:14;;;;;;;1.20;1.10;;;;;;;24.61;61.35;99636.50;5088097;28;20245;-57
2022/09/07 06:51:41;;;;;;;1.20;1.05;;;;;;;24.82;63.87;99635.66;5083288;28;20202;-64
2022/09/07 06:54:09;;;;;;;1.10;0.95;;;;;;;25.00;62.76;99636.97;5090281;28;20730;-57
2022/09/07 06:56:36;;;;;;;0.82;0.75;;;;;;;25.07;60.72;99636.03;5090626;28;20216;-63
2022/09/07 06:59:03;;;;;;;0.95;0.85;;;;;;;25.23;61.79;99636.75;5088844;28;20222;-57
2022/09/07 07:01:32;;;;;;;1.20;1.00;;;;;;;25.35;61.88;99640.44;5087547;28;20240;-57
2022/09/07 07:04:00;;;;;;;1.13;1.02;;;;;;;25.47;59.21;99640.69;5088838;28;20245;-66
2022/09/07 07:06:34;;;;;;;1.08;0.80;;;;;;;25.66;61.00;99631.34;5088175;28;20202;-68
2022/09/07 07:09:01;;;;;;;1.10;1.00;;;;;;;25.73;57.32;99634.78;5085736;28;20221;-65
2022/09/07 07:11:29;;;;;;;1.17;0.85;;;;;;;25.69;56.15;99641.41;5087432;28;20205;-58
2022/09/07 07:13:56;;;;;;;1.00;0.90;;;;;;;25.77;56.01;99637.81;5084898;28;20214;-59
2022/09/07 07:16:23;;;;;;;1.15;1.00;;;;;;;25.69;54.98;99641.41;5086969;28;20253;-58
2022/09/07 07:18:55;;;;;;;1.23;1.00;;;;;;;25.75;58.73;99645.88;5088494;28;20630;-58
2022/09/07 07:21:22;;;;;;;0.90;0.90;;;;;;;25.77;56.16;99637.81;5089548;28;20214;-67
2022/09/07 07:23:50;;;;;;;1.08;0.98;;;;;;;25.78;63.18;99644.69;5088805;28;20744;-59
2022/09/07 07:26:19;;;;;;;1.10;1.00;;;;;;;25.87;58.64;99660.03;5088710;28;20206;-59
2022/09/07 07:28:47;;;;;;;1.30;1.20;;;;;;;25.94;61.95;99649.59;5090312;28;20214;-59
2022/09/07 07:31:15;;;;;;;1.65;1.27;;;;;;;25.65;57.51;99658.50;5088020;28;20230;-66
2022/09/07 07:33:45;;;;;;;1.10;1.00;;;;;;;25.50;59.45;99664.69;5088635;28;20229;-59
2022/09/07 07:36:14;;;;;;;0.85;0.85;;;;;;;25.64;57.84;99659.53;5086365;28;20197;-59
2022/09/07 07:38:42;;;;;;;1.23;1.13;;;;;;;25.78;59.34;99661.19;5088217;28;20221;-66
2022/09/07 07:41:10;;;;;;;1.20;1.10;;;;;;;26.03;59.32;99663.31;5086879;28;20230;-59
2022/09/07 07:43:38;;;;;;;1.15;0.90;;;;;;;26.24;58.45;99665.81;5087848;28;20214;-67
2022/09/07 07:46:05;;;;;;;1.05;0.95;;;;;;;26.42;58.02;99670.47;5087795;28;20670;-59
2022/09/07 07:48:33;;;;;;;1.48;1.20;;;;;;;26.58;54.99;99666.69;5088001;28;20214;-60
2022/09/07 07:51:02;;;;;;;1.48;0.98;;;;;;;26.73;56.09;99674.34;5087242;28;20202;-67
2022/09/07 07:53:33;;;;;;;0.70;0.70;;;;;;;26.71;56.11;99674.56;5085416;28;20232;-67
2022/09/07 07:56:00;;;;;;;1.30;1.05;;;;;;;26.94;53.67;99682.03;5087735;28;20198;-66
2022/09/07 07:58:28;;;;;;;1.00;0.90;;;;;;;27.05;51.32;99678.78;5088073;28;20598;-67
2022/09/07 08:00:55;;;;;;;1.05;1.00;;;;;;;27.07;52.45;99668.88;5087647;28;20234;-59
2022/09/07 08:03:23;;;;;;;1.25;0.95;;;;;;;27.10;53.90;99672.91;5087979;28;20232;-67
2022/09/07 08:05:50;;;;;;;0.93;0.93;;;;;;;26.97;50.68;99678.19;5083502;28;20229;-67
2022/09/07 08:08:16;;;;;;;1.00;0.82;;;;;;;26.95;53.50;99677.59;5087751;28;20601;-67
2022/09/07 08:10:46;;;;;;;1.02;0.95;;;;;;;26.85;52.50;99678.00;5085615;28;20202;-66
2022/09/07 08:13:14;;;;;;;1.20;1.10;;;;;;;27.10;53.31;99681.59;5087278;28;20611;-60
2022/09/07 08:15:43;;;;;;;2.28;0.90;;;;;;;27.20;50.34;99675.97;5086316;28;20230;-59
2022/09/07 08:18:10;;;;;;;0.80;0.80;;;;;;;27.37;53.30;99675.53;5087236;28;20226;-59
2022/09/07 08:20:37;;;;;;;1.20;1.05;;;;;;;27.26;49.38;99675.16;5087351;28;20314;-66
2022/09/07 08:23:06;;;;;;;1.08;0.90;;;;;;;27.34;52.80;99675.94;5087245;28;20234;-67
2022/09/07 08:25:33;;;;;;;1.35;1.10;;;;;;;27.34;49.21;99675.94;5086066;28;20206;-67
2022/09/07 08:28:01;;;;;;;0.70;0.70;;;;;;;27.48;49.39;99667.81;5088050;28;20225;-59
2022/09/07 08:30:29;;;;;;;1.15;0.90;;;;;;;27.45;48.68;99672.69;5087632;28;20206;-67
2022/09/07 08:32:56;;;;;;;0.77;0.77;;;;;;;27.29;47.02;99669.50;5091482;28;20218;-59
2022/09/07 08:35:22;;;;;;;0.93;0.82;;;;;;;27.16;46.40;99674.75;5090587;28;20191;-59
2022/09/07 08:37:49;;;;;;;0.63;0.63;;;;;;;26.95;46.43;99667.88;5088799;28;20221;-60
2022/09/07 08:40:16;;;;;;;1.10;0.80;;;;;;;27.32;47.81;99665.66;5090928;28;20210;-63
2022/09/07 08:43:03;;;;;;;1.17;0.85;;;;;;;27.37;46.86;99660.56;5090602;28;20264;-67
2022/09/07 08:45:35;;;;;;;0.70;0.70;;;;;;;27.60;47.02;99659.28;5091942;28;20194;-59
2022/09/07 08:48:04;;;;;;;0.93;0.93;;;;;;;27.69;46.09;99660.66;5092507;28;20309;-67
2022/09/07 08:50:35;;;;;;;0.90;0.90;;;;;;;27.60;44.79;99660.09;5091461;28;20202;-66
2022/09/07 08:53:07;;;;;;;0.80;0.80;;;;;;;27.61;48.27;99658.28;5092528;28;20230;-67
2022/09/07 08:55:39;;;;;;;0.75;0.75;;;;;;;27.72;47.68;99653.19;5092085;28;20209;-66
2022/09/07 08:58:15;;;;;;;1.05;0.95;;;;;;;27.86;46.23;99637.38;5092689;28;20297;-66
2022/09/07 09:00:42;;;;;;;1.27;0.98;;;;;;;27.90;46.22;99646.47;5091798;28;20201;-59
2022/09/07 09:03:20;;;;;;;0.88;0.85;;;;;;;27.73;45.82;99640.84;5091832;28;20299;-67
2022/09/07 09:06:00;;;;;;;1.10;0.98;;;;;;;27.91;46.30;99634.94;5091760;28;20212;-64
2022/09/07 09:08:42;;;;;;;1.27;0.95;;;;;;;27.98;45.36;99636.53;5091869;28;20213;-67
2022/09/07 09:11:16;;;;;;;0.85;0.85;;;;;;;28.03;44.74;99633.25;5091275;28;20198;-60
2022/09/07 09:13:54;;;;;;;1.30;1.00;;;;;;;27.84;45.27;99636.78;5092475;28;20604;-67
2022/09/07 09:16:30;;;;;;;2.15;1.08;;;;;;;28.04;46.63;99629.59;5091924;28;20460;-60
2022/09/07 09:19:14;;;;;;;1.02;1.00;;;;;;;28.28;45.74;99625.41;5091487;28;20538;-66
2022/09/07 09:21:41;;;;;;;0.90;0.90;;;;;;;28.52;43.76;99620.41;5091777;28;20226;-67
2022/09/07 09:24:15;;;;;;;0.95;0.82;;;;;;;28.35;41.76;99620.09;5091437;28;20592;-59
2022/09/07 09:26:46;;;;;;;0.98;0.80;;;;;;;28.56;43.48;99617.13;5091426;28;20609;-60
2022/09/07 09:29:17;;;;;;;1.38;0.95;;;;;;;28.62;43.28;99608.38;5091093;28;20218;-60
2022/09/07 09:31:44;;;;;;;1.08;1.00;;;;;;;28.70;45.55;99611.75;5091950;28;20198;-67
2022/09/07 09:34:13;;;;;;;1.05;0.90;;;;;;;28.83;42.76;99596.66;5090901;28;20222;-67
2022/09/07 09:36:47;;;;;;;1.00;0.90;;;;;;;28.78;44.91;99603.59;5091546;28;20206;-59
2022/09/07 09:39:26;;;;;;;1.05;0.90;;;;;;;29.10;41.64;99606.94;5090922;28;20217;-67
2022/09/07 09:41:54;;;;;;;1.10;1.00;;;;;;;29.24;42.41;99600.50;5090829;28;20218;-67
2022/09/07 09:44:23;;;;;;;1.00;0.90;;;;;;;29.32;42.90;99591.47;5091335;28;20598;-67
2022/09/07 09:46:53;;;;;;;1.23;1.00;;;;;;;28.82;42.55;99594.22;5091377;28;20194;-59
2022/09/07 09:49:24;;;;;;;1.02;0.93;;;;;;;28.70;42.08;99598.59;5090822;28;20230;-60
2022/09/07 09:51:55;;;;;;;0.93;0.90;;;;;;;28.69;43.59;99594.38;5091446;28;20224;-60
2022/09/07 09:54:26;;;;;;;1.45;0.80;;;;;;;29.21;43.97;99589.59;5090830;28;20257;-68
2022/09/07 09:56:53;;;;;;;1.05;0.95;;;;;;;29.61;45.20;99583.81;5090792;28;20718;-67
2022/09/07 09:59:24;;;;;;;1.10;1.00;;;;;;;29.59;41.02;99580.63;5090557;28;20229;-60
2022/09/07 10:01:51;;;;;;;1.77;1.15;;;;;;;29.65;42.13;99577.13;5090874;28;20325;-68
2022/09/07 10:04:20;;;;;;;1.00;0.90;;;;;;;29.69;41.69;99573.00;5091084;28;20611;-60
2022/09/07 10:06:51;;;;;;;1.42;1.15;;;;;;;29.50;40.27;99580.94;5090067;28;20292;-60
2022/09/07 10:09:20;;;;;;;0.95;0.85;;;;;;;29.36;40.49;99584.75;5090891;28;20225;-67
2022/09/07 10:11:49;;;;;;;0.70;0.70;;;;;;;28.94;39.86;99571.41;5090896;28;20198;-59
2022/09/07 10:14:19;;;;;;;1.00;0.90;;;;;;;29.38;43.52;99564.28;5090632;28;20226;-60
2022/09/07 10:16:48;;;;;;;1.30;1.13;;;;;;;29.44;43.05;99571.28;5088972;28;20213;-67
2022/09/07 10:19:32;;;;;;;0.82;0.82;;;;;;;29.68;41.85;99561.66;5090939;28;20234;-68
2022/09/07 10:22:01;;;;;;;1.30;1.20;;;;;;;30.05;43.47;99563.34;5091164;28;20251;-67
2022/09/07 10:24:33;;;;;;;1.13;1.02;;;;;;;29.91;39.08;99563.56;5089569;28;20224;-67
2022/09/07 10:26:59;;;;;;;0.80;0.80;;;;;;;30.11;40.73;99560.63;5090711;28;20206;-62
2022/09/07 10:29:29;;;;;;;1.33;1.20;;;;;;;29.75;39.74;99551.03;5089925;28;20214;-59
2022/09/07 10:32:13;;;;;;;1.67;1.20;;;;;;;29.73;42.25;99550.44;5087195;28;20206;-67
2022/09/07 10:34:52;;;;;;;0.90;0.90;;;;;;;29.11;39.14;99556.66;5090001;28;20198;-60
2022/09/07 10:37:32;;;;;;;1.05;0.98;;;;;;;29.60;42.05;99540.06;5090156;28;20573;-60
2022/09/07 10:40:13;;;;;;;1.50;0.95;;;;;;;29.83;40.29;99542.81;5089664;28;20382;-68
2022/09/07 10:42:45;;;;;;;1.05;0.93;;;;;;;30.02;40.13;99543.53;5090111;28;20252;-60
2022/09/07 10:45:19;;;;;;;1.33;0.65;;;;;;;30.23;39.10;99552.78;5087877;28;20617;-60
2022/09/07 10:47:58;;;;;;;1.23;0.90;;;;;;;30.57;37.32;99537.16;5088836;28;20631;-60
2022/09/07 10:50:30;;;;;;;0.93;0.90;;;;;;;30.64;36.69;99538.66;5089366;28;20206;-60
2022/09/07 10:53:14;;;;;;;1.10;1.00;;;;;;;30.55;39.14;99547.16;5089854;28;20244;-68
2022/09/07 10:55:43;;;;;;;1.17;1.08;;;;;;;30.62;38.02;99539.91;5088266;28;20213;-68
2022/09/07 10:58:24;;;;;;;1.13;1.02;;;;;;;30.47;41.19;99531.66;5090228;28;20229;-67
2022/09/07 11:01:05;;;;;;;1.17;1.08;;;;;;;30.54;39.15;99529.69;5089273;28;20580;-61
2022/09/07 11:03:56;;;;;;;0.90;0.90;;;;;;;30.61;40.40;99535.69;5089712;28;20230;-68
2022/09/07 11:06:30;;;;;;;0.88;0.82;;;;;;;30.59;40.15;99519.25;5086236;28;20229;-68
2022/09/07 11:09:22;;;;;;;0.80;0.80;;;;;;;30.20;38.87;99524.97;5089523;28;20217;-60
2022/09/07 11:11:58;;;;;;;1.23;0.95;;;;;;;30.27;41.17;99526.72;5089775;28;20576;-68
2022/09/07 11:14:28;;;;;;;1.30;0.98;;;;;;;30.41;41.65;99522.84;5088904;28;20226;-68
2022/09/07 11:17:00;;;;;;;1.13;0.88;;;;;;;30.49;38.82;99524.34;5089733;28;20206;-60
2022/09/07 11:19:33;;;;;;;1.17;0.98;;;;;;;30.20;39.24;99521.53;5089668;28;20240;-67
2022/09/07 11:22:14;;;;;;;0.88;0.88;;;;;;;30.49;40.66;99524.34;5088724;28;20239;-68
2022/09/07 11:24:47;;;;;;;1.10;1.00;;;;;;;30.57;39.00;99513.41;5089013;28;20198;-67
2022/09/07 11:27:18;;;;;;;1.63;1.00;;;;;;;30.41;37.48;99507.81;5089346;28;20197;-60
2022/09/07 11:29:50;;;;;;;0.80;0.80;;;;;;;30.32;37.12;99514.47;5088615;28;20190;-68
2022/09/07 11:32:22;;;;;;;0.98;0.98;;;;;;;29.93;37.83;99505.31;5089573;28;20202;-60
2022/09/07 11:34:55;;;;;;;2.13;1.10;;;;;;;30.05;40.87;99502.72;5089053;28;20194;-60
2022/09/07 11:37:28;;;;;;;1.17;1.00;;;;;;;30.33;40.42;99492.31;5088780;28;20198;-60
2022/09/07 11:40:03;;;;;;;1.00;1.00;;;;;;;30.44;36.07;99483.59;5089102;28;20201;-59
2022/09/07 11:42:34;;;;;;;0.68;0.68;;;;;;;30.15;36.42;99487.94;5089008;28;20241;-68
2022/09/07 11:45:05;;;;;;;0.82;0.82;;;;;;;30.07;36.59;99484.84;5088573;28;20209;-69
2022/09/07 11:47:39;;;;;;;1.02;0.90;;;;;;;30.43;37.41;99489.91;5072259;28;20219;-68
2022/09/07 11:50:16;;;;;;;0.95;0.80;;;;;;;30.29;34.90;99488.53;5089141;28;20623;-68